PWSweather.com
Personal Weather Stations
Station Observations
KCARIDGE3
Ridgecrest, CA 93555

Ridgecrest, CA 93555

Lat: 35.62083817, Lon: -117.6733017

Elevation: 2315

Station Type:

High Low Average
Temperature 94.8°F34.9°C 66.2°F19.0°C 82.1°F27.8°C
Dew Point 53.2°F11.8°C 39.6°F4.2°C 45.4°F7.4°C
Winds 19.9 mph 32.0 kmh Calm Calm 6.0 mph SSW9.7 kmh SSW
Wind Gusts 25.9 mph41.7 kmh -- 7.0 mph11.3 kmh
Humidity 45% 16% 29%
Pressure -338605.1 mb -338605.1 mb -
Precipitation 0.00 in0.0 mm - -
Hour Temp Dew Point Humidity Winds Wind Gusts Pressure Precip Precip Rate Daily Precip Total
12:02 AM 75.0°F23.9°C 43.2°F6.2°C 32% 2.0 mph S3.2 kmh S 2.0 mph3.2 kmh -338605.1 mb 0.00 in0.0 mm 0.00 in/hr0.0 mm/hr 0.00 in0.0 mm
12:07 AM 75.0°F23.9°C 43.2°F6.2°C 32% 2.0 mph S3.2 kmh S -- -338605.1 mb 0.00 in0.0 mm 0.00 in/hr0.0 mm/hr 0.00 in0.0 mm
12:12 AM 75.9°F24.4°C 43.2°F6.2°C 31% 0.9 mph SW1.4 kmh SW 0.9 mph1.4 kmh -338605.1 mb 0.00 in0.0 mm 0.00 in/hr0.0 mm/hr 0.00 in0.0 mm
12:17 AM 75.6°F24.2°C 42.8°F6.0°C 31% 0.9 mph SW1.4 kmh SW -- -338605.1 mb 0.00 in0.0 mm 0.00 in/hr0.0 mm/hr 0.00 in0.0 mm
12:22 AM 75.6°F24.2°C 42.8°F6.0°C 31% Calm Calm 2.0 mph3.2 kmh -338605.1 mb 0.00 in0.0 mm 0.00 in/hr0.0 mm/hr 0.00 in0.0 mm
12:27 AM 75.6°F24.2°C 42.8°F6.0°C 31% 0.9 mph SW1.4 kmh SW 2.0 mph3.2 kmh -338605.1 mb 0.00 in0.0 mm 0.00 in/hr0.0 mm/hr 0.00 in0.0 mm
12:32 AM 75.7°F24.3°C 43.0°F6.1°C 31% 2.9 mph SW4.7 kmh SW 2.9 mph4.7 kmh -338605.1 mb 0.00 in0.0 mm 0.00 in/hr0.0 mm/hr 0.00 in0.0 mm
12:37 AM 74.8°F23.8°C 43.0°F6.1°C 32% 2.0 mph SW3.2 kmh SW 4.0 mph6.4 kmh -338605.1 mb 0.00 in0.0 mm 0.00 in/hr0.0 mm/hr 0.00 in0.0 mm
12:42 AM 74.1°F23.4°C 43.2°F6.2°C 33% 2.9 mph SW4.7 kmh SW 4.0 mph6.4 kmh -338605.1 mb 0.00 in0.0 mm 0.00 in/hr0.0 mm/hr 0.00 in0.0 mm
12:47 AM 73.6°F23.1°C 42.6°F5.9°C 33% 4.0 mph SW6.4 kmh SW 4.0 mph6.4 kmh -338605.1 mb 0.00 in0.0 mm 0.00 in/hr0.0 mm/hr 0.00 in0.0 mm
12:52 AM 73.6°F23.1°C 42.6°F5.9°C 33% 4.0 mph SW6.4 kmh SW 4.0 mph6.4 kmh -338605.1 mb 0.00 in0.0 mm 0.00 in/hr0.0 mm/hr 0.00 in0.0 mm
12:57 AM 73.6°F23.1°C 43.5°F6.4°C 34% 4.0 mph SW6.4 kmh SW 2.9 mph4.7 kmh -338605.1 mb 0.00 in0.0 mm 0.00 in/hr0.0 mm/hr 0.00 in0.0 mm
01:02 AM 73.9°F23.3°C 43.9°F6.6°C 34% 2.9 mph SW4.7 kmh SW 0.9 mph1.4 kmh -338605.1 mb 0.00 in0.0 mm 0.00 in/hr0.0 mm/hr 0.00 in0.0 mm
01:07 AM 74.1°F23.4°C 43.2°F6.2°C 33% 2.0 mph SW3.2 kmh SW 2.0 mph3.2 kmh -338605.1 mb 0.00 in0.0 mm 0.00 in/hr0.0 mm/hr 0.00 in0.0 mm
01:12 AM 74.3°F23.5°C 44.1°F6.7°C 34% 2.0 mph SW3.2 kmh SW 2.0 mph3.2 kmh -338605.1 mb 0.00 in0.0 mm 0.00 in/hr0.0 mm/hr 0.00 in0.0 mm
01:17 AM 73.9°F23.3°C 43.9°F6.6°C 34% 2.9 mph WNW4.7 kmh WNW 8.1 mph13.0 kmh -338605.1 mb 0.00 in0.0 mm 0.00 in/hr0.0 mm/hr 0.00 in0.0 mm
01:22 AM 73.0°F22.8°C 43.7°F6.5°C 35% 4.0 mph WSW6.4 kmh WSW 4.0 mph6.4 kmh -338605.1 mb 0.00 in0.0 mm 0.00 in/hr0.0 mm/hr 0.00 in0.0 mm
01:27 AM 72.7°F22.6°C 44.2°F6.8°C 36% 4.0 mph WSW6.4 kmh WSW 0.9 mph1.4 kmh -338605.1 mb 0.00 in0.0 mm 0.00 in/hr0.0 mm/hr 0.00 in0.0 mm
01:32 AM 72.1°F22.3°C 43.7°F6.5°C 36% 2.9 mph WSW4.7 kmh WSW 2.0 mph3.2 kmh -338605.1 mb 0.00 in0.0 mm 0.00 in/hr0.0 mm/hr 0.00 in0.0 mm
01:37 AM 72.7°F22.6°C 44.2°F6.8°C 36% 2.9 mph WSW4.7 kmh WSW 6.9 mph11.1 kmh -338605.1 mb 0.00 in0.0 mm 0.00 in/hr0.0 mm/hr 0.00 in0.0 mm
01:42 AM 72.3°F22.4°C 44.6°F7.0°C 37% 4.0 mph WSW6.4 kmh WSW 6.0 mph9.7 kmh -338605.1 mb 0.00 in0.0 mm 0.00 in/hr0.0 mm/hr 0.00 in0.0 mm
01:47 AM 72.3°F22.4°C 44.6°F7.0°C 37% 6.0 mph SW9.7 kmh SW 6.0 mph9.7 kmh -338605.1 mb 0.00 in0.0 mm 0.00 in/hr0.0 mm/hr 0.00 in0.0 mm
01:52 AM 72.3°F22.4°C 44.6°F7.0°C 37% 4.9 mph SW7.9 kmh SW 4.9 mph7.9 kmh -338605.1 mb 0.00 in0.0 mm 0.00 in/hr0.0 mm/hr 0.00 in0.0 mm
01:57 AM 72.3°F22.4°C 44.6°F7.0°C 37% 6.0 mph SW9.7 kmh SW 4.0 mph6.4 kmh -338605.1 mb 0.00 in0.0 mm 0.00 in/hr0.0 mm/hr 0.00 in0.0 mm
02:02 AM 72.7°F22.6°C 44.2°F6.8°C 36% 6.0 mph SSW9.7 kmh SSW 6.9 mph11.1 kmh -338605.1 mb 0.00 in0.0 mm 0.00 in/hr0.0 mm/hr 0.00 in0.0 mm
02:07 AM 72.9°F22.7°C 44.4°F6.9°C 36% 6.0 mph SW9.7 kmh SW 4.9 mph7.9 kmh -338605.1 mb 0.00 in0.0 mm 0.00 in/hr0.0 mm/hr 0.00 in0.0 mm
02:12 AM 72.7°F22.6°C 44.2°F6.8°C 36% 6.0 mph SSW9.7 kmh SSW 6.0 mph9.7 kmh -338605.1 mb 0.00 in0.0 mm 0.00 in/hr0.0 mm/hr 0.00 in0.0 mm
02:17 AM 72.7°F22.6°C 44.2°F6.8°C 36% 6.9 mph SSW11.1 kmh SSW 6.9 mph11.1 kmh -338605.1 mb 0.00 in0.0 mm 0.00 in/hr0.0 mm/hr 0.00 in0.0 mm
02:22 AM 72.5°F22.5°C 44.1°F6.7°C 36% 6.9 mph S11.1 kmh S 6.9 mph11.1 kmh -338605.1 mb 0.00 in0.0 mm 0.00 in/hr0.0 mm/hr 0.00 in0.0 mm
02:27 AM 72.3°F22.4°C 43.9°F6.6°C 36% 6.0 mph S9.7 kmh S 6.9 mph11.1 kmh -338605.1 mb 0.00 in0.0 mm 0.00 in/hr0.0 mm/hr 0.00 in0.0 mm
02:32 AM 72.1°F22.3°C 44.4°F6.9°C 37% 4.9 mph SSW7.9 kmh SSW 2.0 mph3.2 kmh -338605.1 mb 0.00 in0.0 mm 0.00 in/hr0.0 mm/hr 0.00 in0.0 mm
02:37 AM 71.8°F22.1°C 44.1°F6.7°C 37% 4.0 mph SSW6.4 kmh SSW 2.9 mph4.7 kmh -338605.1 mb 0.00 in0.0 mm 0.00 in/hr0.0 mm/hr 0.00 in0.0 mm
02:42 AM 71.6°F22.0°C 44.6°F7.0°C 38% 4.0 mph SSW6.4 kmh SSW 2.9 mph4.7 kmh -338605.1 mb 0.00 in0.0 mm 0.00 in/hr0.0 mm/hr 0.00 in0.0 mm
02:47 AM 71.2°F21.8°C 44.2°F6.8°C 38% 2.9 mph S4.7 kmh S 4.0 mph6.4 kmh -338605.1 mb 0.00 in0.0 mm 0.00 in/hr0.0 mm/hr 0.00 in0.0 mm
02:52 AM 71.1°F21.7°C 44.2°F6.8°C 38% 2.9 mph SSW4.7 kmh SSW 2.9 mph4.7 kmh -338605.1 mb 0.00 in0.0 mm 0.00 in/hr0.0 mm/hr 0.00 in0.0 mm
02:57 AM 70.9°F21.6°C 44.8°F7.1°C 39% 2.9 mph SSW4.7 kmh SSW 0.9 mph1.4 kmh -338605.1 mb 0.00 in0.0 mm 0.00 in/hr0.0 mm/hr 0.00 in0.0 mm
03:02 AM 70.9°F21.6°C 44.1°F6.7°C 38% 2.0 mph SSW3.2 kmh SSW 2.0 mph3.2 kmh -338605.1 mb 0.00 in0.0 mm 0.00 in/hr0.0 mm/hr 0.00 in0.0 mm
03:07 AM 70.9°F21.6°C 44.8°F7.1°C 39% 2.0 mph WSW3.2 kmh WSW 4.9 mph7.9 kmh -338605.1 mb 0.00 in0.0 mm 0.00 in/hr0.0 mm/hr 0.00 in0.0 mm
03:12 AM 70.5°F21.4°C 45.7°F7.6°C 41% 4.0 mph WSW6.4 kmh WSW 8.9 mph14.3 kmh -338605.1 mb 0.00 in0.0 mm 0.00 in/hr0.0 mm/hr 0.00 in0.0 mm
03:17 AM 70.5°F21.4°C 46.4°F8.0°C 42% 6.0 mph SW9.7 kmh SW 6.0 mph9.7 kmh -338605.1 mb 0.00 in0.0 mm 0.00 in/hr0.0 mm/hr 0.00 in0.0 mm
03:22 AM 70.5°F21.4°C 45.7°F7.6°C 41% 6.9 mph WSW11.1 kmh WSW 8.9 mph14.3 kmh -338605.1 mb 0.00 in0.0 mm 0.00 in/hr0.0 mm/hr 0.00 in0.0 mm
03:27 AM 70.5°F21.4°C 45.0°F7.2°C 40% 8.1 mph WSW13.0 kmh WSW 6.9 mph11.1 kmh -338605.1 mb 0.00 in0.0 mm 0.00 in/hr0.0 mm/hr 0.00 in0.0 mm
03:32 AM 70.7°F21.5°C 44.6°F7.0°C 39% 8.1 mph WSW13.0 kmh WSW 8.1 mph13.0 kmh -338605.1 mb 0.00 in0.0 mm 0.00 in/hr0.0 mm/hr 0.00 in0.0 mm
03:37 AM 70.7°F21.5°C 44.6°F7.0°C 39% 6.9 mph W11.1 kmh W 6.9 mph11.1 kmh -338605.1 mb 0.00 in0.0 mm 0.00 in/hr0.0 mm/hr 0.00 in0.0 mm
03:42 AM 70.7°F21.5°C 43.9°F6.6°C 38% 6.0 mph W9.7 kmh W 4.9 mph7.9 kmh -338605.1 mb 0.00 in0.0 mm 0.00 in/hr0.0 mm/hr 0.00 in0.0 mm
03:47 AM 70.2°F21.2°C 44.1°F6.7°C 39% 4.9 mph WSW7.9 kmh WSW 4.9 mph7.9 kmh -338605.1 mb 0.00 in0.0 mm 0.00 in/hr0.0 mm/hr 0.00 in0.0 mm
03:52 AM 70.0°F21.1°C 44.6°F7.0°C 40% 6.0 mph WSW9.7 kmh WSW 4.0 mph6.4 kmh -338605.1 mb 0.00 in0.0 mm 0.00 in/hr0.0 mm/hr 0.00 in0.0 mm
03:57 AM 69.6°F20.9°C 45.0°F7.2°C 41% 4.9 mph WSW7.9 kmh WSW 2.9 mph4.7 kmh -338605.1 mb 0.00 in0.0 mm 0.00 in/hr0.0 mm/hr 0.00 in0.0 mm
04:02 AM 69.6°F20.9°C 45.0°F7.2°C 41% 4.9 mph SW7.9 kmh SW 4.9 mph7.9 kmh -338605.1 mb 0.00 in0.0 mm 0.00 in/hr0.0 mm/hr 0.00 in0.0 mm
04:07 AM 69.6°F20.9°C 45.0°F7.2°C 41% 4.9 mph SW7.9 kmh SW 4.9 mph7.9 kmh -338605.1 mb 0.00 in0.0 mm 0.00 in/hr0.0 mm/hr 0.00 in0.0 mm
04:12 AM 69.6°F20.9°C 45.0°F7.2°C 41% 4.9 mph SW7.9 kmh SW 4.9 mph7.9 kmh -338605.1 mb 0.00 in0.0 mm 0.00 in/hr0.0 mm/hr 0.00 in0.0 mm
04:17 AM 69.8°F21.0°C 45.0°F7.2°C 41% 4.0 mph S6.4 kmh S 4.0 mph6.4 kmh -338605.1 mb 0.00 in0.0 mm 0.00 in/hr0.0 mm/hr 0.00 in0.0 mm
04:22 AM 69.3°F20.7°C 45.1°F7.3°C 42% 4.0 mph SSE6.4 kmh SSE 2.0 mph3.2 kmh -338605.1 mb 0.00 in0.0 mm 0.00 in/hr0.0 mm/hr 0.00 in0.0 mm
04:27 AM 69.3°F20.7°C 45.1°F7.3°C 42% 2.9 mph SSE4.7 kmh SSE -- -338605.1 mb 0.00 in0.0 mm 0.00 in/hr0.0 mm/hr 0.00 in0.0 mm
04:32 AM 69.3°F20.7°C 45.1°F7.3°C 42% 0.9 mph SSE1.4 kmh SSE -- -338605.1 mb 0.00 in0.0 mm 0.00 in/hr0.0 mm/hr 0.00 in0.0 mm
04:37 AM 68.7°F20.4°C 46.6°F8.1°C 45% Calm Calm 0.9 mph1.4 kmh -338605.1 mb 0.00 in0.0 mm 0.00 in/hr0.0 mm/hr 0.00 in0.0 mm
04:42 AM 68.4°F20.2°C 46.2°F7.9°C 45% Calm Calm -- -338605.1 mb 0.00 in0.0 mm 0.00 in/hr0.0 mm/hr 0.00 in0.0 mm
04:47 AM 68.4°F20.2°C 45.0°F7.2°C 43% Calm Calm -- -338605.1 mb 0.00 in0.0 mm 0.00 in/hr0.0 mm/hr 0.00 in0.0 mm
04:52 AM 68.4°F20.2°C 45.0°F7.2°C 43% 0.9 mph SSE1.4 kmh SSE 2.9 mph4.7 kmh -338605.1 mb 0.00 in0.0 mm 0.00 in/hr0.0 mm/hr 0.00 in0.0 mm
04:57 AM 68.5°F20.3°C 45.1°F7.3°C 43% 2.0 mph SSE3.2 kmh SSE 2.0 mph3.2 kmh -338605.1 mb 0.00 in0.0 mm 0.00 in/hr0.0 mm/hr 0.00 in0.0 mm
05:02 AM 68.5°F20.3°C 45.1°F7.3°C 43% 2.9 mph SSE4.7 kmh SSE 2.9 mph4.7 kmh -338605.1 mb 0.00 in0.0 mm 0.00 in/hr0.0 mm/hr 0.00 in0.0 mm
05:07 AM 68.5°F20.3°C 45.1°F7.3°C 43% 2.9 mph SSE4.7 kmh SSE 2.9 mph4.7 kmh -338605.1 mb 0.00 in0.0 mm 0.00 in/hr0.0 mm/hr 0.00 in0.0 mm
05:12 AM 68.5°F20.3°C 45.1°F7.3°C 43% 2.9 mph SSE4.7 kmh SSE 2.9 mph4.7 kmh -338605.1 mb 0.00 in0.0 mm 0.00 in/hr0.0 mm/hr 0.00 in0.0 mm
05:17 AM 68.2°F20.1°C 45.5°F7.5°C 44% 2.9 mph SSE4.7 kmh SSE 0.9 mph1.4 kmh -338605.1 mb 0.00 in0.0 mm 0.00 in/hr0.0 mm/hr 0.00 in0.0 mm
05:22 AM 67.8°F19.9°C 45.1°F7.3°C 44% 2.0 mph SSE3.2 kmh SSE 0.9 mph1.4 kmh -338605.1 mb 0.00 in0.0 mm 0.00 in/hr0.0 mm/hr 0.00 in0.0 mm
05:27 AM 67.8°F19.9°C 45.1°F7.3°C 44% 2.0 mph SSE3.2 kmh SSE 0.9 mph1.4 kmh -338605.1 mb 0.00 in0.0 mm 0.00 in/hr0.0 mm/hr 0.00 in0.0 mm
05:32 AM 68.0°F20.0°C 45.3°F7.4°C 44% 0.9 mph SSE1.4 kmh SSE 0.9 mph1.4 kmh -338605.1 mb 0.00 in0.0 mm 0.00 in/hr0.0 mm/hr 0.00 in0.0 mm
05:37 AM 68.4°F20.2°C 44.4°F6.9°C 42% 0.9 mph W1.4 kmh W 4.0 mph6.4 kmh -338605.1 mb 0.00 in0.0 mm 0.00 in/hr0.0 mm/hr 0.00 in0.0 mm
05:42 AM 67.6°F19.8°C 44.4°F6.9°C 43% 4.0 mph WSW6.4 kmh WSW 4.0 mph6.4 kmh -338605.1 mb 0.00 in0.0 mm 0.00 in/hr0.0 mm/hr 0.00 in0.0 mm
05:47 AM 67.5°F19.7°C 44.2°F6.8°C 43% 6.0 mph WSW9.7 kmh WSW 6.0 mph9.7 kmh -338605.1 mb 0.00 in0.0 mm 0.00 in/hr0.0 mm/hr 0.00 in0.0 mm
05:52 AM 67.5°F19.7°C 44.2°F6.8°C 43% 4.9 mph WSW7.9 kmh WSW 6.0 mph9.7 kmh -338605.1 mb 0.00 in0.0 mm 0.00 in/hr0.0 mm/hr 0.00 in0.0 mm
05:57 AM 67.8°F19.9°C 44.4°F6.9°C 43% 4.9 mph SW7.9 kmh SW 4.0 mph6.4 kmh -338605.1 mb 0.00 in0.0 mm 0.00 in/hr0.0 mm/hr 0.00 in0.0 mm
06:02 AM 67.8°F19.9°C 44.4°F6.9°C 43% 4.0 mph SW6.4 kmh SW 2.0 mph3.2 kmh -338605.1 mb 0.00 in0.0 mm 0.00 in/hr0.0 mm/hr 0.00 in0.0 mm
06:07 AM 67.5°F19.7°C 44.2°F6.8°C 43% 2.0 mph SW3.2 kmh SW 2.9 mph4.7 kmh -338605.1 mb 0.00 in0.0 mm 0.00 in/hr0.0 mm/hr 0.00 in0.0 mm
06:12 AM 67.3°F19.6°C 44.1°F6.7°C 43% 2.0 mph SW3.2 kmh SW 2.9 mph4.7 kmh -338605.1 mb 0.00 in0.0 mm 0.00 in/hr0.0 mm/hr 0.00 in0.0 mm
06:17 AM 67.1°F19.5°C 43.9°F6.6°C 43% 2.9 mph SW4.7 kmh SW 4.0 mph6.4 kmh -338605.1 mb 0.00 in0.0 mm 0.00 in/hr0.0 mm/hr 0.00 in0.0 mm
06:22 AM 66.9°F19.4°C 44.2°F6.8°C 44% 2.9 mph SW4.7 kmh SW 4.9 mph7.9 kmh -338605.1 mb 0.00 in0.0 mm 0.00 in/hr0.0 mm/hr 0.00 in0.0 mm
06:27 AM 66.7°F19.3°C 44.1°F6.7°C 44% 4.0 mph SW6.4 kmh SW 4.0 mph6.4 kmh -338605.1 mb 0.00 in0.0 mm 0.00 in/hr0.0 mm/hr 0.00 in0.0 mm
06:32 AM 66.6°F19.2°C 44.1°F6.7°C 44% 4.0 mph SW6.4 kmh SW 4.9 mph7.9 kmh -338605.1 mb 0.00 in0.0 mm 0.00 in/hr0.0 mm/hr 0.00 in0.0 mm
06:37 AM 66.2°F19.0°C 43.7°F6.5°C 44% 4.0 mph SW6.4 kmh SW 4.9 mph7.9 kmh -338605.1 mb 0.00 in0.0 mm 0.00 in/hr0.0 mm/hr 0.00 in0.0 mm
06:42 AM 66.4°F19.1°C 43.9°F6.6°C 44% 4.9 mph SSW7.9 kmh SSW 6.0 mph9.7 kmh -338605.1 mb 0.00 in0.0 mm 0.00 in/hr0.0 mm/hr 0.00 in0.0 mm
06:47 AM 66.9°F19.4°C 44.2°F6.8°C 44% 4.9 mph SSW7.9 kmh SSW 2.0 mph3.2 kmh -338605.1 mb 0.00 in0.0 mm 0.00 in/hr0.0 mm/hr 0.00 in0.0 mm
06:52 AM 67.3°F19.6°C 44.6°F7.0°C 44% 2.9 mph SSW4.7 kmh SSW -- -338605.1 mb 0.00 in0.0 mm 0.00 in/hr0.0 mm/hr 0.00 in0.0 mm
06:57 AM 66.7°F19.3°C 44.1°F6.7°C 44% 0.9 mph SSW1.4 kmh SSW 2.9 mph4.7 kmh -338605.1 mb 0.00 in0.0 mm 0.00 in/hr0.0 mm/hr 0.00 in0.0 mm
07:02 AM 67.5°F19.7°C 44.8°F7.1°C 44% 2.0 mph SSW3.2 kmh SSW 0.9 mph1.4 kmh -338605.1 mb 0.00 in0.0 mm 0.00 in/hr0.0 mm/hr 0.00 in0.0 mm
07:07 AM 68.2°F20.1°C 44.8°F7.1°C 43% 2.0 mph SSW3.2 kmh SSW 0.9 mph1.4 kmh -338605.1 mb 0.00 in0.0 mm 0.00 in/hr0.0 mm/hr 0.00 in0.0 mm
07:12 AM 68.7°F20.4°C 44.8°F7.1°C 42% 0.9 mph SSW1.4 kmh SSW 0.9 mph1.4 kmh -338605.1 mb 0.00 in0.0 mm 0.00 in/hr0.0 mm/hr 0.00 in0.0 mm
07:17 AM 69.3°F20.7°C 45.9°F7.7°C 43% 0.9 mph SSW1.4 kmh SSW 0.9 mph1.4 kmh -338605.1 mb 0.00 in0.0 mm 0.00 in/hr0.0 mm/hr 0.00 in0.0 mm
07:22 AM 70.0°F21.1°C 45.1°F7.3°C 41% 0.9 mph SW1.4 kmh SW 0.9 mph1.4 kmh -338605.1 mb 0.00 in0.0 mm 0.00 in/hr0.0 mm/hr 0.00 in0.0 mm
07:27 AM 70.5°F21.4°C 45.7°F7.6°C 41% 0.9 mph WSW1.4 kmh WSW 2.0 mph3.2 kmh -338605.1 mb 0.00 in0.0 mm 0.00 in/hr0.0 mm/hr 0.00 in0.0 mm
07:32 AM 70.5°F21.4°C 45.7°F7.6°C 41% 0.9 mph WSW1.4 kmh WSW -- -338605.1 mb 0.00 in0.0 mm 0.00 in/hr0.0 mm/hr 0.00 in0.0 mm
07:37 AM 71.2°F21.8°C 45.0°F7.2°C 39% Calm Calm 0.9 mph1.4 kmh -338605.1 mb 0.00 in0.0 mm 0.00 in/hr0.0 mm/hr 0.00 in0.0 mm
07:42 AM 72.0°F22.2°C 45.7°F7.6°C 39% 0.9 mph WSW1.4 kmh WSW 2.0 mph3.2 kmh -338605.1 mb 0.00 in0.0 mm 0.00 in/hr0.0 mm/hr 0.00 in0.0 mm
07:47 AM 72.5°F22.5°C 45.5°F7.5°C 38% 2.0 mph WSW3.2 kmh WSW 0.9 mph1.4 kmh -338605.1 mb 0.00 in0.0 mm 0.00 in/hr0.0 mm/hr 0.00 in0.0 mm
07:52 AM 72.9°F22.7°C 45.7°F7.6°C 38% 2.0 mph WSW3.2 kmh WSW 0.9 mph1.4 kmh -338605.1 mb 0.00 in0.0 mm 0.00 in/hr0.0 mm/hr 0.00 in0.0 mm
07:57 AM 73.0°F22.8°C 45.1°F7.3°C 37% 0.9 mph WSW1.4 kmh WSW 2.0 mph3.2 kmh -338605.1 mb 0.00 in0.0 mm 0.00 in/hr0.0 mm/hr 0.00 in0.0 mm
08:02 AM 73.2°F22.9°C 45.3°F7.4°C 37% 0.9 mph WSW1.4 kmh WSW 0.9 mph1.4 kmh -338605.1 mb 0.00 in0.0 mm 0.00 in/hr0.0 mm/hr 0.00 in0.0 mm
08:07 AM 73.8°F23.2°C 45.1°F7.3°C 36% 0.9 mph WSW1.4 kmh WSW 2.0 mph3.2 kmh -338605.1 mb 0.00 in0.0 mm 0.00 in/hr0.0 mm/hr 0.00 in0.0 mm
08:12 AM 74.1°F23.4°C 44.8°F7.1°C 35% 2.0 mph WSW3.2 kmh WSW 2.0 mph3.2 kmh -338605.1 mb 0.00 in0.0 mm 0.00 in/hr0.0 mm/hr 0.00 in0.0 mm
08:17 AM 74.1°F23.4°C 43.9°F6.6°C 34% 2.0 mph WSW3.2 kmh WSW 2.0 mph3.2 kmh -338605.1 mb 0.00 in0.0 mm 0.00 in/hr0.0 mm/hr 0.00 in0.0 mm
08:22 AM 74.8°F23.8°C 44.6°F7.0°C 34% 0.9 mph WSW1.4 kmh WSW -- -338605.1 mb 0.00 in0.0 mm 0.00 in/hr0.0 mm/hr 0.00 in0.0 mm
08:27 AM 75.7°F24.3°C 44.6°F7.0°C 33% 0.9 mph WSW1.4 kmh WSW 0.9 mph1.4 kmh -338605.1 mb 0.00 in0.0 mm 0.00 in/hr0.0 mm/hr 0.00 in0.0 mm
08:32 AM 75.9°F24.4°C 43.9°F6.6°C 32% 0.9 mph WSW1.4 kmh WSW -- -338605.1 mb 0.00 in0.0 mm 0.00 in/hr0.0 mm/hr 0.00 in0.0 mm
08:37 AM 75.7°F24.3°C 43.7°F6.5°C 32% 0.9 mph WSW1.4 kmh WSW -- -338605.1 mb 0.00 in0.0 mm 0.00 in/hr0.0 mm/hr 0.00 in0.0 mm
08:42 AM 76.8°F24.9°C 44.8°F7.1°C 32% Calm Calm -- -338605.1 mb 0.00 in0.0 mm 0.00 in/hr0.0 mm/hr 0.00 in0.0 mm
08:47 AM 77.5°F25.3°C 43.7°F6.5°C 30% Calm Calm -- -338605.1 mb 0.00 in0.0 mm 0.00 in/hr0.0 mm/hr 0.00 in0.0 mm
08:52 AM 77.5°F25.3°C 43.7°F6.5°C 30% Calm Calm -- -338605.1 mb 0.00 in0.0 mm 0.00 in/hr0.0 mm/hr 0.00 in0.0 mm
08:57 AM 78.3°F25.7°C 44.2°F6.8°C 30% Calm Calm -- -338605.1 mb 0.00 in0.0 mm 0.00 in/hr0.0 mm/hr 0.00 in0.0 mm
09:02 AM 79.0°F26.1°C 44.1°F6.7°C 29% Calm Calm -- -338605.1 mb 0.00 in0.0 mm 0.00 in/hr0.0 mm/hr 0.00 in0.0 mm
09:07 AM 79.2°F26.2°C 44.2°F6.8°C 29% Calm Calm -- -338605.1 mb 0.00 in0.0 mm 0.00 in/hr0.0 mm/hr 0.00 in0.0 mm
09:12 AM 79.5°F26.4°C 43.5°F6.4°C 28% Calm Calm 0.9 mph1.4 kmh -338605.1 mb 0.00 in0.0 mm 0.00 in/hr0.0 mm/hr 0.00 in0.0 mm
09:17 AM 80.2°F26.8°C 44.2°F6.8°C 28% Calm Calm 0.9 mph1.4 kmh -338605.1 mb 0.00 in0.0 mm 0.00 in/hr0.0 mm/hr 0.00 in0.0 mm
09:22 AM 80.2°F26.8°C 43.2°F6.2°C 27% 0.9 mph WSW1.4 kmh WSW -- -338605.1 mb 0.00 in0.0 mm 0.00 in/hr0.0 mm/hr 0.00 in0.0 mm
09:27 AM 79.3°F26.3°C 43.3°F6.3°C 28% 0.9 mph WSW1.4 kmh WSW -- -338605.1 mb 0.00 in0.0 mm 0.00 in/hr0.0 mm/hr 0.00 in0.0 mm
09:32 AM 80.1°F26.7°C 44.1°F6.7°C 28% 0.9 mph W1.4 kmh W -- -338605.1 mb 0.00 in0.0 mm 0.00 in/hr0.0 mm/hr 0.00 in0.0 mm
09:37 AM 81.9°F27.7°C 43.7°F6.5°C 26% 0.9 mph W1.4 kmh W -- -338605.1 mb 0.00 in0.0 mm 0.00 in/hr0.0 mm/hr 0.00 in0.0 mm
09:42 AM 81.7°F27.6°C 43.5°F6.4°C 26% Calm Calm -- -338605.1 mb 0.00 in0.0 mm 0.00 in/hr0.0 mm/hr 0.00 in0.0 mm
09:47 AM 81.7°F27.6°C 43.5°F6.4°C 26% Calm Calm -- -338605.1 mb 0.00 in0.0 mm 0.00 in/hr0.0 mm/hr 0.00 in0.0 mm
09:52 AM 81.9°F27.7°C 43.7°F6.5°C 26% Calm Calm 0.9 mph1.4 kmh -338605.1 mb 0.00 in0.0 mm 0.00 in/hr0.0 mm/hr 0.00 in0.0 mm
09:57 AM 82.9°F28.3°C 44.6°F7.0°C 26% 0.9 mph WNW1.4 kmh WNW -- -338605.1 mb 0.00 in0.0 mm 0.00 in/hr0.0 mm/hr 0.00 in0.0 mm
10:02 AM 84.0°F28.9°C 44.4°F6.9°C 25% 0.9 mph WNW1.4 kmh WNW 0.9 mph1.4 kmh -338605.1 mb 0.00 in0.0 mm 0.00 in/hr0.0 mm/hr 0.00 in0.0 mm
10:07 AM 83.7°F28.7°C 43.0°F6.1°C 24% 2.0 mph SSW3.2 kmh SSW 2.0 mph3.2 kmh -338605.1 mb 0.00 in0.0 mm 0.00 in/hr0.0 mm/hr 0.00 in0.0 mm
10:12 AM 84.7°F29.3°C 43.9°F6.6°C 24% 2.9 mph S4.7 kmh S 2.9 mph4.7 kmh -338605.1 mb 0.00 in0.0 mm 0.00 in/hr0.0 mm/hr 0.00 in0.0 mm
10:17 AM 84.7°F29.3°C 43.9°F6.6°C 24% 2.0 mph E3.2 kmh E -- -338605.1 mb 0.00 in0.0 mm 0.00 in/hr0.0 mm/hr 0.00 in0.0 mm
10:22 AM 83.8°F28.8°C 44.2°F6.8°C 25% 0.9 mph E1.4 kmh E 0.9 mph1.4 kmh -338605.1 mb 0.00 in0.0 mm 0.00 in/hr0.0 mm/hr 0.00 in0.0 mm
10:27 AM 82.9°F28.3°C 43.5°F6.4°C 25% 0.9 mph E1.4 kmh E -- -338605.1 mb 0.00 in0.0 mm 0.00 in/hr0.0 mm/hr 0.00 in0.0 mm
10:32 AM 85.3°F29.6°C 44.4°F6.9°C 24% 0.9 mph E1.4 kmh E 4.9 mph7.9 kmh -338605.1 mb 0.00 in0.0 mm 0.00 in/hr0.0 mm/hr 0.00 in0.0 mm
10:37 AM 86.2°F30.1°C 44.1°F6.7°C 23% 2.0 mph NE3.2 kmh NE 4.0 mph6.4 kmh -338605.1 mb 0.00 in0.0 mm 0.00 in/hr0.0 mm/hr 0.00 in0.0 mm
10:42 AM 87.1°F30.6°C 43.7°F6.5°C 22% 2.9 mph ENE4.7 kmh ENE 4.0 mph6.4 kmh -338605.1 mb 0.00 in0.0 mm 0.00 in/hr0.0 mm/hr 0.00 in0.0 mm
10:47 AM 87.1°F30.6°C 43.7°F6.5°C 22% 2.9 mph NNE4.7 kmh NNE 0.9 mph1.4 kmh -338605.1 mb 0.00 in0.0 mm 0.00 in/hr0.0 mm/hr 0.00 in0.0 mm
10:52 AM 84.9°F29.4°C 43.0°F6.1°C 23% 2.0 mph NNE3.2 kmh NNE -- -338605.1 mb 0.00 in0.0 mm 0.00 in/hr0.0 mm/hr 0.00 in0.0 mm
10:57 AM 85.6°F29.8°C 43.5°F6.4°C 23% 0.9 mph W1.4 kmh W 4.0 mph6.4 kmh -338605.1 mb 0.00 in0.0 mm 0.00 in/hr0.0 mm/hr 0.00 in0.0 mm
11:02 AM 86.5°F30.3°C 44.4°F6.9°C 23% 0.9 mph W1.4 kmh W 2.9 mph4.7 kmh -338605.1 mb 0.00 in0.0 mm 0.00 in/hr0.0 mm/hr 0.00 in0.0 mm
11:07 AM 87.1°F30.6°C 44.8°F7.1°C 23% 2.0 mph W3.2 kmh W 2.9 mph4.7 kmh -338605.1 mb 0.00 in0.0 mm 0.00 in/hr0.0 mm/hr 0.00 in0.0 mm
11:12 AM 87.6°F30.9°C 45.3°F7.4°C 23% 2.0 mph WNW3.2 kmh WNW -- -338605.1 mb 0.00 in0.0 mm 0.00 in/hr0.0 mm/hr 0.00 in0.0 mm
11:17 AM 87.6°F30.9°C 44.1°F6.7°C 22% 2.0 mph NNW3.2 kmh NNW 4.9 mph7.9 kmh -338605.1 mb 0.00 in0.0 mm 0.00 in/hr0.0 mm/hr 0.00 in0.0 mm
11:22 AM 87.3°F30.7°C 45.0°F7.2°C 23% 2.9 mph NNW4.7 kmh NNW 2.0 mph3.2 kmh -338605.1 mb 0.00 in0.0 mm 0.00 in/hr0.0 mm/hr 0.00 in0.0 mm
11:27 AM 86.0°F30.0°C 43.9°F6.6°C 23% 2.9 mph NNW4.7 kmh NNW 2.0 mph3.2 kmh -338605.1 mb 0.00 in0.0 mm 0.00 in/hr0.0 mm/hr 0.00 in0.0 mm
11:32 AM 88.5°F31.4°C 43.5°F6.4°C 21% 2.9 mph NE4.7 kmh NE 4.0 mph6.4 kmh -338605.1 mb 0.00 in0.0 mm 0.00 in/hr0.0 mm/hr 0.00 in0.0 mm
11:37 AM 88.5°F31.4°C 44.8°F7.1°C 22% 4.0 mph NE6.4 kmh NE 4.9 mph7.9 kmh -338605.1 mb 0.00 in0.0 mm 0.00 in/hr0.0 mm/hr 0.00 in0.0 mm
11:42 AM 88.3°F31.3°C 44.6°F7.0°C 22% 4.0 mph NNE6.4 kmh NNE 2.0 mph3.2 kmh -338605.1 mb 0.00 in0.0 mm 0.00 in/hr0.0 mm/hr 0.00 in0.0 mm
11:47 AM 89.1°F31.7°C 44.1°F6.7°C 21% 4.0 mph ENE6.4 kmh ENE 2.0 mph3.2 kmh -338605.1 mb 0.00 in0.0 mm 0.00 in/hr0.0 mm/hr 0.00 in0.0 mm
11:52 AM 89.1°F31.7°C 45.3°F7.4°C 22% 2.0 mph ENE3.2 kmh ENE 2.0 mph3.2 kmh -338605.1 mb 0.00 in0.0 mm 0.00 in/hr0.0 mm/hr 0.00 in0.0 mm
11:57 AM 90.3°F32.4°C 45.1°F7.3°C 21% 2.0 mph ENE3.2 kmh ENE 0.9 mph1.4 kmh -338605.1 mb 0.00 in0.0 mm 0.00 in/hr0.0 mm/hr 0.00 in0.0 mm
12:02 PM 90.0°F32.2°C 44.8°F7.1°C 21% 2.0 mph ENE3.2 kmh ENE 2.0 mph3.2 kmh -338605.1 mb 0.00 in0.0 mm 0.00 in/hr0.0 mm/hr 0.00 in0.0 mm
12:07 PM 89.4°F31.9°C 45.5°F7.5°C 22% 2.0 mph NW3.2 kmh NW 2.9 mph4.7 kmh -338605.1 mb 0.00 in0.0 mm 0.00 in/hr0.0 mm/hr 0.00 in0.0 mm
12:12 PM 90.1°F32.3°C 45.0°F7.2°C 21% 2.9 mph SSW4.7 kmh SSW 4.9 mph7.9 kmh -338605.1 mb 0.00 in0.0 mm 0.00 in/hr0.0 mm/hr 0.00 in0.0 mm
12:17 PM 91.9°F33.3°C 45.1°F7.3°C 20% 4.9 mph S7.9 kmh S 16.1 mph25.9 kmh -338605.1 mb 0.00 in0.0 mm 0.00 in/hr0.0 mm/hr 0.00 in0.0 mm
12:22 PM 92.1°F33.4°C 43.9°F6.6°C 19% 6.9 mph S11.1 kmh S 10.1 mph16.3 kmh -338605.1 mb 0.00 in0.0 mm 0.00 in/hr0.0 mm/hr 0.00 in0.0 mm
12:27 PM 91.4°F33.0°C 44.8°F7.1°C 20% 8.1 mph SE13.0 kmh SE 4.9 mph7.9 kmh -338605.1 mb 0.00 in0.0 mm 0.00 in/hr0.0 mm/hr 0.00 in0.0 mm
12:32 PM 90.9°F32.7°C 44.2°F6.8°C 20% 6.0 mph ESE9.7 kmh ESE -- -338605.1 mb 0.00 in0.0 mm 0.00 in/hr0.0 mm/hr 0.00 in0.0 mm
12:37 PM 91.4°F33.0°C 44.8°F7.1°C 20% 2.9 mph NE4.7 kmh NE 6.9 mph11.1 kmh -338605.1 mb 0.00 in0.0 mm 0.00 in/hr0.0 mm/hr 0.00 in0.0 mm
12:42 PM 89.8°F32.1°C 44.6°F7.0°C 21% 2.9 mph NNE4.7 kmh NNE 2.0 mph3.2 kmh -338605.1 mb 0.00 in0.0 mm 0.00 in/hr0.0 mm/hr 0.00 in0.0 mm
12:47 PM 90.1°F32.3°C 46.2°F7.9°C 22% 2.0 mph SE3.2 kmh SE 2.0 mph3.2 kmh -338605.1 mb 0.00 in0.0 mm 0.00 in/hr0.0 mm/hr 0.00 in0.0 mm
12:52 PM 90.1°F32.3°C 45.0°F7.2°C 21% 2.0 mph ESE3.2 kmh ESE 0.9 mph1.4 kmh -338605.1 mb 0.00 in0.0 mm 0.00 in/hr0.0 mm/hr 0.00 in0.0 mm
12:57 PM 90.1°F32.3°C 45.0°F7.2°C 21% 2.0 mph WSW3.2 kmh WSW 0.9 mph1.4 kmh -338605.1 mb 0.00 in0.0 mm 0.00 in/hr0.0 mm/hr 0.00 in0.0 mm
01:02 PM 90.1°F32.3°C 45.0°F7.2°C 21% 2.9 mph W4.7 kmh W 2.9 mph4.7 kmh -338605.1 mb 0.00 in0.0 mm 0.00 in/hr0.0 mm/hr 0.00 in0.0 mm
01:07 PM 90.0°F32.2°C 44.8°F7.1°C 21% 2.9 mph WNW4.7 kmh WNW -- -338605.1 mb 0.00 in0.0 mm 0.00 in/hr0.0 mm/hr 0.00 in0.0 mm
01:12 PM 90.7°F32.6°C 45.3°F7.4°C 21% 2.9 mph NNW4.7 kmh NNW 8.1 mph13.0 kmh -338605.1 mb 0.00 in0.0 mm 0.00 in/hr0.0 mm/hr 0.00 in0.0 mm
01:17 PM 91.8°F33.2°C 45.0°F7.2°C 20% 6.0 mph NE9.7 kmh NE 4.9 mph7.9 kmh -338605.1 mb 0.00 in0.0 mm 0.00 in/hr0.0 mm/hr 0.00 in0.0 mm
01:22 PM 93.0°F33.9°C 46.0°F7.8°C 20% 6.0 mph SSE9.7 kmh SSE 8.1 mph13.0 kmh -338605.1 mb 0.00 in0.0 mm 0.00 in/hr0.0 mm/hr 0.00 in0.0 mm
01:27 PM 92.5°F33.6°C 46.9°F8.3°C 21% 6.9 mph SW11.1 kmh SW 4.9 mph7.9 kmh -338605.1 mb 0.00 in0.0 mm 0.00 in/hr0.0 mm/hr 0.00 in0.0 mm
01:32 PM 93.9°F34.4°C 45.3°F7.4°C 19% 8.9 mph S14.3 kmh S 14.1 mph22.7 kmh -338605.1 mb 0.00 in0.0 mm 0.00 in/hr0.0 mm/hr 0.00 in0.0 mm
01:37 PM 93.6°F34.2°C 46.4°F8.0°C 20% 8.9 mph WSW14.3 kmh WSW 4.0 mph6.4 kmh -338605.1 mb 0.00 in0.0 mm 0.00 in/hr0.0 mm/hr 0.00 in0.0 mm
01:42 PM 93.2°F34.0°C 44.8°F7.1°C 19% 8.1 mph S13.0 kmh S 15.0 mph24.1 kmh -338605.1 mb 0.00 in0.0 mm 0.00 in/hr0.0 mm/hr 0.00 in0.0 mm
01:47 PM 93.7°F34.3°C 46.6°F8.1°C 20% 8.1 mph SW13.0 kmh SW 4.9 mph7.9 kmh -338605.1 mb 0.00 in0.0 mm 0.00 in/hr0.0 mm/hr 0.00 in0.0 mm
01:52 PM 94.1°F34.5°C 44.1°F6.7°C 18% 6.9 mph SSE11.1 kmh SSE 6.0 mph9.7 kmh -338605.1 mb 0.00 in0.0 mm 0.00 in/hr0.0 mm/hr 0.00 in0.0 mm
01:57 PM 94.6°F34.8°C 46.0°F7.8°C 19% 6.0 mph S9.7 kmh S 11.0 mph17.7 kmh -338605.1 mb 0.00 in0.0 mm 0.00 in/hr0.0 mm/hr 0.00 in0.0 mm
02:02 PM 94.3°F34.6°C 45.7°F7.6°C 19% 10.1 mph S16.3 kmh S 16.1 mph25.9 kmh -338605.1 mb 0.00 in0.0 mm 0.00 in/hr0.0 mm/hr 0.00 in0.0 mm
02:07 PM 93.9°F34.4°C 45.3°F7.4°C 19% 12.1 mph S19.5 kmh S 14.1 mph22.7 kmh -338605.1 mb 0.00 in0.0 mm 0.00 in/hr0.0 mm/hr 0.00 in0.0 mm
02:12 PM 94.6°F34.8°C 46.0°F7.8°C 19% 12.1 mph SSE19.5 kmh SSE 16.1 mph25.9 kmh -338605.1 mb 0.00 in0.0 mm 0.00 in/hr0.0 mm/hr 0.00 in0.0 mm
02:17 PM 93.7°F34.3°C 45.3°F7.4°C 19% 10.1 mph SE16.3 kmh SE 8.1 mph13.0 kmh -338605.1 mb 0.00 in0.0 mm 0.00 in/hr0.0 mm/hr 0.00 in0.0 mm
02:22 PM 94.3°F34.6°C 44.2°F6.8°C 18% 8.1 mph S13.0 kmh S 6.0 mph9.7 kmh -338605.1 mb 0.00 in0.0 mm 0.00 in/hr0.0 mm/hr 0.00 in0.0 mm
02:27 PM 94.3°F34.6°C 45.7°F7.6°C 19% 8.1 mph SW13.0 kmh SW 8.1 mph13.0 kmh -338605.1 mb 0.00 in0.0 mm 0.00 in/hr0.0 mm/hr 0.00 in0.0 mm
02:32 PM 94.3°F34.6°C 47.1°F8.4°C 20% 6.9 mph WSW11.1 kmh WSW 10.1 mph16.3 kmh -338605.1 mb 0.00 in0.0 mm 0.00 in/hr0.0 mm/hr 0.00 in0.0 mm
02:37 PM 94.1°F34.5°C 45.5°F7.5°C 19% 8.1 mph SW13.0 kmh SW 6.0 mph9.7 kmh -338605.1 mb 0.00 in0.0 mm 0.00 in/hr0.0 mm/hr 0.00 in0.0 mm
02:42 PM 94.6°F34.8°C 44.6°F7.0°C 18% 8.9 mph SW14.3 kmh SW 15.0 mph24.1 kmh -338605.1 mb 0.00 in0.0 mm 0.00 in/hr0.0 mm/hr 0.00 in0.0 mm
02:47 PM 94.6°F34.8°C 46.0°F7.8°C 19% 10.1 mph WSW16.3 kmh WSW 11.0 mph17.7 kmh -338605.1 mb 0.00 in0.0 mm 0.00 in/hr0.0 mm/hr 0.00 in0.0 mm
02:52 PM 94.5°F34.7°C 44.4°F6.9°C 18% 10.1 mph S16.3 kmh S 8.1 mph13.0 kmh -338605.1 mb 0.00 in0.0 mm 0.00 in/hr0.0 mm/hr 0.00 in0.0 mm
02:57 PM 94.3°F34.6°C 45.7°F7.6°C 19% 8.1 mph SW13.0 kmh SW 16.1 mph25.9 kmh -338605.1 mb 0.00 in0.0 mm 0.00 in/hr0.0 mm/hr 0.00 in0.0 mm
03:02 PM 94.1°F34.5°C 45.5°F7.5°C 19% 8.1 mph S13.0 kmh S 6.0 mph9.7 kmh -338605.1 mb 0.00 in0.0 mm 0.00 in/hr0.0 mm/hr 0.00 in0.0 mm
03:07 PM 93.9°F34.4°C 44.1°F6.7°C 18% 8.9 mph SE14.3 kmh SE 6.0 mph9.7 kmh -338605.1 mb 0.00 in0.0 mm 0.00 in/hr0.0 mm/hr 0.00 in0.0 mm
03:12 PM 94.5°F34.7°C 44.4°F6.9°C 18% 8.1 mph SW13.0 kmh SW 6.9 mph11.1 kmh -338605.1 mb 0.00 in0.0 mm 0.00 in/hr0.0 mm/hr 0.00 in0.0 mm
03:17 PM 94.1°F34.5°C 45.5°F7.5°C 19% 10.1 mph SW16.3 kmh SW 12.1 mph19.5 kmh -338605.1 mb 0.00 in0.0 mm 0.00 in/hr0.0 mm/hr 0.00 in0.0 mm
03:22 PM 94.3°F34.6°C 44.2°F6.8°C 18% 10.1 mph SW16.3 kmh SW 12.1 mph19.5 kmh -338605.1 mb 0.00 in0.0 mm 0.00 in/hr0.0 mm/hr 0.00 in0.0 mm
03:27 PM 94.3°F34.6°C 44.2°F6.8°C 18% 10.1 mph SW16.3 kmh SW 6.9 mph11.1 kmh -338605.1 mb 0.00 in0.0 mm 0.00 in/hr0.0 mm/hr 0.00 in0.0 mm
03:32 PM 94.1°F34.5°C 44.1°F6.7°C 18% 8.1 mph SSW13.0 kmh SSW 6.0 mph9.7 kmh -338605.1 mb 0.00 in0.0 mm 0.00 in/hr0.0 mm/hr 0.00 in0.0 mm
03:37 PM 94.3°F34.6°C 44.2°F6.8°C 18% 6.0 mph SSW9.7 kmh SSW 6.0 mph9.7 kmh -338605.1 mb 0.00 in0.0 mm 0.00 in/hr0.0 mm/hr 0.00 in0.0 mm
03:42 PM 94.3°F34.6°C 44.2°F6.8°C 18% 4.9 mph SW7.9 kmh SW -- -338605.1 mb 0.00 in0.0 mm 0.00 in/hr0.0 mm/hr 0.00 in0.0 mm
03:47 PM 94.6°F34.8°C 44.6°F7.0°C 18% 4.9 mph WSW7.9 kmh WSW 8.1 mph13.0 kmh -338605.1 mb 0.00 in0.0 mm 0.00 in/hr0.0 mm/hr 0.00 in0.0 mm
03:52 PM 94.6°F34.8°C 44.6°F7.0°C 18% 6.9 mph SSW11.1 kmh SSW 13.0 mph20.9 kmh -338605.1 mb 0.00 in0.0 mm 0.00 in/hr0.0 mm/hr 0.00 in0.0 mm
03:57 PM 94.5°F34.7°C 44.4°F6.9°C 18% 10.1 mph S16.3 kmh S 6.9 mph11.1 kmh -338605.1 mb 0.00 in0.0 mm 0.00 in/hr0.0 mm/hr 0.00 in0.0 mm
04:02 PM 94.8°F34.9°C 44.8°F7.1°C 18% 10.1 mph SSW16.3 kmh SSW 6.9 mph11.1 kmh -338605.1 mb 0.00 in0.0 mm 0.00 in/hr0.0 mm/hr 0.00 in0.0 mm
04:07 PM 94.8°F34.9°C 43.2°F6.2°C 17% 8.9 mph SSW14.3 kmh SSW 17.0 mph27.4 kmh -338605.1 mb 0.00 in0.0 mm 0.00 in/hr0.0 mm/hr 0.00 in0.0 mm
04:12 PM 94.3°F34.6°C 42.8°F6.0°C 17% 11.0 mph S17.7 kmh S 6.9 mph11.1 kmh -338605.1 mb 0.00 in0.0 mm 0.00 in/hr0.0 mm/hr 0.00 in0.0 mm
04:17 PM 93.9°F34.4°C 44.1°F6.7°C 18% 8.9 mph S14.3 kmh S 16.1 mph25.9 kmh -338605.1 mb 0.00 in0.0 mm 0.00 in/hr0.0 mm/hr 0.00 in0.0 mm
04:22 PM 93.9°F34.4°C 42.4°F5.8°C 17% 10.1 mph S16.3 kmh S 19.9 mph32.0 kmh -338605.1 mb 0.00 in0.0 mm 0.00 in/hr0.0 mm/hr 0.00 in0.0 mm
04:27 PM 94.1°F34.5°C 42.6°F5.9°C 17% 13.0 mph S20.9 kmh S 12.1 mph19.5 kmh -338605.1 mb 0.00 in0.0 mm 0.00 in/hr0.0 mm/hr 0.00 in0.0 mm
04:32 PM 94.5°F34.7°C 44.4°F6.9°C 18% 12.1 mph S19.5 kmh S 13.0 mph20.9 kmh -338605.1 mb 0.00 in0.0 mm 0.00 in/hr0.0 mm/hr 0.00 in0.0 mm
04:37 PM 93.6°F34.2°C 43.7°F6.5°C 18% 11.0 mph SE17.7 kmh SE 8.9 mph14.3 kmh -338605.1 mb 0.00 in0.0 mm 0.00 in/hr0.0 mm/hr 0.00 in0.0 mm
04:42 PM 93.7°F34.3°C 42.3°F5.7°C 17% 10.1 mph SW16.3 kmh SW 4.9 mph7.9 kmh -338605.1 mb 0.00 in0.0 mm 0.00 in/hr0.0 mm/hr 0.00 in0.0 mm
04:47 PM 93.7°F34.3°C 43.9°F6.6°C 18% 6.0 mph S9.7 kmh S 8.9 mph14.3 kmh -338605.1 mb 0.00 in0.0 mm 0.00 in/hr0.0 mm/hr 0.00 in0.0 mm
04:52 PM 94.1°F34.5°C 44.1°F6.7°C 18% 6.0 mph SSW9.7 kmh SSW 13.0 mph20.9 kmh -338605.1 mb 0.00 in0.0 mm 0.00 in/hr0.0 mm/hr 0.00 in0.0 mm
04:57 PM 93.9°F34.4°C 42.4°F5.8°C 17% 8.1 mph SSW13.0 kmh SSW 4.9 mph7.9 kmh -338605.1 mb 0.00 in0.0 mm 0.00 in/hr0.0 mm/hr 0.00 in0.0 mm
05:02 PM 94.3°F34.6°C 42.8°F6.0°C 17% 6.9 mph SSW11.1 kmh SSW 11.0 mph17.7 kmh -338605.1 mb 0.00 in0.0 mm 0.00 in/hr0.0 mm/hr 0.00 in0.0 mm
05:07 PM 94.1°F34.5°C 42.6°F5.9°C 17% 6.9 mph S11.1 kmh S 8.9 mph14.3 kmh -338605.1 mb 0.00 in0.0 mm 0.00 in/hr0.0 mm/hr 0.00 in0.0 mm
05:12 PM 93.7°F34.3°C 42.3°F5.7°C 17% 8.1 mph S13.0 kmh S 12.1 mph19.5 kmh -338605.1 mb 0.00 in0.0 mm 0.00 in/hr0.0 mm/hr 0.00 in0.0 mm
05:17 PM 93.0°F33.9°C 41.7°F5.4°C 17% 6.0 mph S9.7 kmh S 0.9 mph1.4 kmh -338605.1 mb 0.00 in0.0 mm 0.00 in/hr0.0 mm/hr 0.00 in0.0 mm
05:22 PM 93.4°F34.1°C 42.1°F5.6°C 17% 4.9 mph SSE7.9 kmh SSE 4.9 mph7.9 kmh -338605.1 mb 0.00 in0.0 mm 0.00 in/hr0.0 mm/hr 0.00 in0.0 mm
05:27 PM 93.6°F34.2°C 40.6°F4.8°C 16% 6.9 mph SE11.1 kmh SE 11.0 mph17.7 kmh -338605.1 mb 0.00 in0.0 mm 0.00 in/hr0.0 mm/hr 0.00 in0.0 mm
05:32 PM 93.6°F34.2°C 42.3°F5.7°C 17% 6.9 mph SW11.1 kmh SW 6.9 mph11.1 kmh -338605.1 mb 0.00 in0.0 mm 0.00 in/hr0.0 mm/hr 0.00 in0.0 mm
05:37 PM 93.2°F34.0°C 41.9°F5.5°C 17% 6.9 mph SW11.1 kmh SW 11.0 mph17.7 kmh -338605.1 mb 0.00 in0.0 mm 0.00 in/hr0.0 mm/hr 0.00 in0.0 mm
05:42 PM 93.2°F34.0°C 41.9°F5.5°C 17% 6.9 mph SSW11.1 kmh SSW 0.9 mph1.4 kmh -338605.1 mb 0.00 in0.0 mm 0.00 in/hr0.0 mm/hr 0.00 in0.0 mm
05:47 PM 93.0°F33.9°C 41.7°F5.4°C 17% 6.0 mph SW9.7 kmh SW 4.0 mph6.4 kmh -338605.1 mb 0.00 in0.0 mm 0.00 in/hr0.0 mm/hr 0.00 in0.0 mm
05:52 PM 93.0°F33.9°C 41.7°F5.4°C 17% 6.0 mph W9.7 kmh W 6.0 mph9.7 kmh -338605.1 mb 0.00 in0.0 mm 0.00 in/hr0.0 mm/hr 0.00 in0.0 mm
05:57 PM 92.8°F33.8°C 40.1°F4.5°C 16% 4.9 mph S7.9 kmh S -- -338605.1 mb 0.00 in0.0 mm 0.00 in/hr0.0 mm/hr 0.00 in0.0 mm
06:02 PM 92.7°F33.7°C 39.9°F4.4°C 16% 4.0 mph S6.4 kmh S 2.9 mph4.7 kmh -338605.1 mb 0.00 in0.0 mm 0.00 in/hr0.0 mm/hr 0.00 in0.0 mm
06:07 PM 92.7°F33.7°C 39.9°F4.4°C 16% 4.9 mph SW7.9 kmh SW 6.0 mph9.7 kmh -338605.1 mb 0.00 in0.0 mm 0.00 in/hr0.0 mm/hr 0.00 in0.0 mm
06:12 PM 92.5°F33.6°C 39.7°F4.3°C 16% 6.9 mph SSE11.1 kmh SSE 8.1 mph13.0 kmh -338605.1 mb 0.00 in0.0 mm 0.00 in/hr0.0 mm/hr 0.00 in0.0 mm
06:17 PM 92.1°F33.4°C 39.6°F4.2°C 16% 6.9 mph S11.1 kmh S 4.0 mph6.4 kmh -338605.1 mb 0.00 in0.0 mm 0.00 in/hr0.0 mm/hr 0.00 in0.0 mm
06:22 PM 92.3°F33.5°C 41.2°F5.1°C 17% 6.0 mph S9.7 kmh S 13.0 mph20.9 kmh -338605.1 mb 0.00 in0.0 mm 0.00 in/hr0.0 mm/hr 0.00 in0.0 mm
06:27 PM 92.1°F33.4°C 41.0°F5.0°C 17% 6.0 mph S9.7 kmh S 6.0 mph9.7 kmh -338605.1 mb 0.00 in0.0 mm 0.00 in/hr0.0 mm/hr 0.00 in0.0 mm
06:32 PM 91.8°F33.2°C 40.8°F4.9°C 17% 6.0 mph SSW9.7 kmh SSW 6.9 mph11.1 kmh -338605.1 mb 0.00 in0.0 mm 0.00 in/hr0.0 mm/hr 0.00 in0.0 mm
06:37 PM 91.8°F33.2°C 40.8°F4.9°C 17% 6.0 mph SW9.7 kmh SW 4.0 mph6.4 kmh -338605.1 mb 0.00 in0.0 mm 0.00 in/hr0.0 mm/hr 0.00 in0.0 mm
06:42 PM 91.6°F33.1°C 40.6°F4.8°C 17% 6.0 mph SSW9.7 kmh SSW 12.1 mph19.5 kmh -338605.1 mb 0.00 in0.0 mm 0.00 in/hr0.0 mm/hr 0.00 in0.0 mm
06:47 PM 91.4°F33.0°C 40.5°F4.7°C 17% 6.9 mph WSW11.1 kmh WSW 6.9 mph11.1 kmh -338605.1 mb 0.00 in0.0 mm 0.00 in/hr0.0 mm/hr 0.00 in0.0 mm
06:52 PM 91.2°F32.9°C 41.7°F5.4°C 18% 6.9 mph SSW11.1 kmh SSW 10.1 mph16.3 kmh -338605.1 mb 0.00 in0.0 mm 0.00 in/hr0.0 mm/hr 0.00 in0.0 mm
06:57 PM 91.0°F32.8°C 41.7°F5.4°C 18% 6.9 mph SSW11.1 kmh SSW 6.9 mph11.1 kmh -338605.1 mb 0.00 in0.0 mm 0.00 in/hr0.0 mm/hr 0.00 in0.0 mm
07:02 PM 90.9°F32.7°C 41.5°F5.3°C 18% 8.1 mph S13.0 kmh S 10.1 mph16.3 kmh -338605.1 mb 0.00 in0.0 mm 0.00 in/hr0.0 mm/hr 0.00 in0.0 mm
07:07 PM 90.5°F32.5°C 41.2°F5.1°C 18% 8.1 mph S13.0 kmh S 8.9 mph14.3 kmh -338605.1 mb 0.00 in0.0 mm 0.00 in/hr0.0 mm/hr 0.00 in0.0 mm
07:12 PM 90.3°F32.4°C 41.0°F5.0°C 18% 8.1 mph S13.0 kmh S 4.0 mph6.4 kmh -338605.1 mb 0.00 in0.0 mm 0.00 in/hr0.0 mm/hr 0.00 in0.0 mm
07:17 PM 90.1°F32.3°C 42.3°F5.7°C 19% 6.9 mph S11.1 kmh S 6.0 mph9.7 kmh -338605.1 mb 0.00 in0.0 mm 0.00 in/hr0.0 mm/hr 0.00 in0.0 mm
07:22 PM 90.0°F32.2°C 42.3°F5.7°C 19% 6.0 mph SW9.7 kmh SW 10.1 mph16.3 kmh -338605.1 mb 0.00 in0.0 mm 0.00 in/hr0.0 mm/hr 0.00 in0.0 mm
07:27 PM 89.8°F32.1°C 40.6°F4.8°C 18% 8.1 mph S13.0 kmh S 11.0 mph17.7 kmh -338605.1 mb 0.00 in0.0 mm 0.00 in/hr0.0 mm/hr 0.00 in0.0 mm
07:32 PM 89.6°F32.0°C 41.9°F5.5°C 19% 8.9 mph S14.3 kmh S 8.1 mph13.0 kmh -338605.1 mb 0.00 in0.0 mm 0.00 in/hr0.0 mm/hr 0.00 in0.0 mm
07:37 PM 89.6°F32.0°C 41.9°F5.5°C 19% 8.9 mph S14.3 kmh S 8.1 mph13.0 kmh -338605.1 mb 0.00 in0.0 mm 0.00 in/hr0.0 mm/hr 0.00 in0.0 mm
07:42 PM 89.2°F31.8°C 41.5°F5.3°C 19% 6.9 mph SSW11.1 kmh SSW 6.9 mph11.1 kmh -338605.1 mb 0.00 in0.0 mm 0.00 in/hr0.0 mm/hr 0.00 in0.0 mm
07:47 PM 88.9°F31.6°C 41.4°F5.2°C 19% 6.0 mph SSW9.7 kmh SSW 4.0 mph6.4 kmh -338605.1 mb 0.00 in0.0 mm 0.00 in/hr0.0 mm/hr 0.00 in0.0 mm
07:52 PM 87.8°F31.0°C 41.7°F5.4°C 20% 4.9 mph S7.9 kmh S 8.1 mph13.0 kmh -338605.1 mb 0.00 in0.0 mm 0.00 in/hr0.0 mm/hr 0.00 in0.0 mm
07:57 PM 88.0°F31.1°C 43.2°F6.2°C 21% 6.0 mph S9.7 kmh S 4.0 mph6.4 kmh -338605.1 mb 0.00 in0.0 mm 0.00 in/hr0.0 mm/hr 0.00 in0.0 mm
08:02 PM 87.8°F31.0°C 43.0°F6.1°C 21% 4.9 mph SSW7.9 kmh SSW 4.9 mph7.9 kmh -338605.1 mb 0.00 in0.0 mm 0.00 in/hr0.0 mm/hr 0.00 in0.0 mm
08:07 PM 87.8°F31.0°C 43.0°F6.1°C 21% 4.0 mph SSW6.4 kmh SSW 2.9 mph4.7 kmh -338605.1 mb 0.00 in0.0 mm 0.00 in/hr0.0 mm/hr 0.00 in0.0 mm
08:12 PM 87.4°F30.8°C 42.8°F6.0°C 21% 2.9 mph SSW4.7 kmh SSW 2.9 mph4.7 kmh -338605.1 mb 0.00 in0.0 mm 0.00 in/hr0.0 mm/hr 0.00 in0.0 mm
08:17 PM 86.5°F30.3°C 47.7°F8.7°C 26% 4.9 mph SE7.9 kmh SE 23.0 mph37.0 kmh -338605.1 mb 0.00 in0.0 mm 0.00 in/hr0.0 mm/hr 0.00 in0.0 mm
08:22 PM 85.8°F29.9°C 48.9°F9.4°C 28% 11.0 mph SE17.7 kmh SE 23.0 mph37.0 kmh -338605.1 mb 0.00 in0.0 mm 0.00 in/hr0.0 mm/hr 0.00 in0.0 mm
08:27 PM 86.0°F30.0°C 50.9°F10.5°C 30% 17.0 mph SE27.4 kmh SE 13.0 mph20.9 kmh -338605.1 mb 0.00 in0.0 mm 0.00 in/hr0.0 mm/hr 0.00 in0.0 mm
08:32 PM 85.8°F29.9°C 50.7°F10.4°C 30% 16.1 mph SE25.9 kmh SE 15.0 mph24.1 kmh -338605.1 mb 0.00 in0.0 mm 0.00 in/hr0.0 mm/hr 0.00 in0.0 mm
08:37 PM 85.5°F29.7°C 52.2°F11.2°C 32% 15.0 mph SE24.1 kmh SE 25.1 mph40.4 kmh -338605.1 mb 0.00 in0.0 mm 0.00 in/hr0.0 mm/hr 0.00 in0.0 mm
08:42 PM 84.9°F29.4°C 52.5°F11.4°C 33% 19.0 mph SSE30.6 kmh SSE 13.0 mph20.9 kmh -338605.1 mb 0.00 in0.0 mm 0.00 in/hr0.0 mm/hr 0.00 in0.0 mm
08:47 PM 84.6°F29.2°C 52.3°F11.3°C 33% 19.0 mph S30.6 kmh S 17.9 mph28.8 kmh -338605.1 mb 0.00 in0.0 mm 0.00 in/hr0.0 mm/hr 0.00 in0.0 mm
08:52 PM 84.4°F29.1°C 52.2°F11.2°C 33% 17.0 mph SSE27.4 kmh SSE 17.9 mph28.8 kmh -338605.1 mb 0.00 in0.0 mm 0.00 in/hr0.0 mm/hr 0.00 in0.0 mm
08:57 PM 83.8°F28.8°C 51.6°F10.9°C 33% 17.0 mph SSE27.4 kmh SSE 25.9 mph41.7 kmh -338605.1 mb 0.00 in0.0 mm 0.00 in/hr0.0 mm/hr 0.00 in0.0 mm
09:02 PM 83.5°F28.6°C 52.2°F11.2°C 34% 19.0 mph SE30.6 kmh SE 21.0 mph33.8 kmh -338605.1 mb 0.00 in0.0 mm 0.00 in/hr0.0 mm/hr 0.00 in0.0 mm
09:07 PM 83.7°F28.7°C 52.3°F11.3°C 34% 19.9 mph SSE32.0 kmh SSE 12.1 mph19.5 kmh -338605.1 mb 0.00 in0.0 mm 0.00 in/hr0.0 mm/hr 0.00 in0.0 mm
09:12 PM 83.7°F28.7°C 52.3°F11.3°C 34% 17.9 mph S28.8 kmh S 21.9 mph35.2 kmh -338605.1 mb 0.00 in0.0 mm 0.00 in/hr0.0 mm/hr 0.00 in0.0 mm
09:17 PM 83.1°F28.4°C 52.7°F11.5°C 35% 19.0 mph SE30.6 kmh SE 17.9 mph28.8 kmh -338605.1 mb 0.00 in0.0 mm 0.00 in/hr0.0 mm/hr 0.00 in0.0 mm
09:22 PM 82.8°F28.2°C 52.3°F11.3°C 35% 19.0 mph SSE30.6 kmh SSE 15.0 mph24.1 kmh -338605.1 mb 0.00 in0.0 mm 0.00 in/hr0.0 mm/hr 0.00 in0.0 mm
09:27 PM 82.8°F28.2°C 53.1°F11.7°C 36% 17.9 mph SSE28.8 kmh SSE 19.0 mph30.6 kmh -338605.1 mb 0.00 in0.0 mm 0.00 in/hr0.0 mm/hr 0.00 in0.0 mm
09:32 PM 82.9°F28.3°C 53.2°F11.8°C 36% 19.0 mph S30.6 kmh S 19.9 mph32.0 kmh -338605.1 mb 0.00 in0.0 mm 0.00 in/hr0.0 mm/hr 0.00 in0.0 mm
09:37 PM 82.9°F28.3°C 53.2°F11.8°C 36% 19.0 mph SSE30.6 kmh SSE 15.0 mph24.1 kmh -338605.1 mb 0.00 in0.0 mm 0.00 in/hr0.0 mm/hr 0.00 in0.0 mm
09:42 PM 82.4°F28.0°C 52.7°F11.5°C 36% 17.9 mph SE28.8 kmh SE 12.1 mph19.5 kmh -338605.1 mb 0.00 in0.0 mm 0.00 in/hr0.0 mm/hr 0.00 in0.0 mm
09:47 PM 82.0°F27.8°C 52.5°F11.4°C 36% 17.0 mph S27.4 kmh S 14.1 mph22.7 kmh -338605.1 mb 0.00 in0.0 mm 0.00 in/hr0.0 mm/hr 0.00 in0.0 mm
09:52 PM 82.0°F27.8°C 53.2°F11.8°C 37% 17.9 mph SSE28.8 kmh SSE 17.9 mph28.8 kmh -338605.1 mb 0.00 in0.0 mm 0.00 in/hr0.0 mm/hr 0.00 in0.0 mm
09:57 PM 82.0°F27.8°C 52.5°F11.4°C 36% 17.9 mph S28.8 kmh S 21.9 mph35.2 kmh -338605.1 mb 0.00 in0.0 mm 0.00 in/hr0.0 mm/hr 0.00 in0.0 mm
10:02 PM 82.2°F27.9°C 52.5°F11.4°C 36% 17.0 mph S27.4 kmh S 21.9 mph35.2 kmh -338605.1 mb 0.00 in0.0 mm 0.00 in/hr0.0 mm/hr 0.00 in0.0 mm
10:07 PM 81.9°F27.7°C 52.3°F11.3°C 36% 17.0 mph S27.4 kmh S 16.1 mph25.9 kmh -338605.1 mb 0.00 in0.0 mm 0.00 in/hr0.0 mm/hr 0.00 in0.0 mm
10:12 PM 81.9°F27.7°C 52.3°F11.3°C 36% 17.9 mph S28.8 kmh S 15.0 mph24.1 kmh -338605.1 mb 0.00 in0.0 mm 0.00 in/hr0.0 mm/hr 0.00 in0.0 mm
10:17 PM 81.7°F27.6°C 52.2°F11.2°C 36% 17.9 mph S28.8 kmh S 21.9 mph35.2 kmh -338605.1 mb 0.00 in0.0 mm 0.00 in/hr0.0 mm/hr 0.00 in0.0 mm
10:22 PM 81.7°F27.6°C 51.4°F10.8°C 35% 17.0 mph SSE27.4 kmh SSE 19.0 mph30.6 kmh -338605.1 mb 0.00 in0.0 mm 0.00 in/hr0.0 mm/hr 0.00 in0.0 mm
10:27 PM 81.9°F27.7°C 51.4°F10.8°C 35% 17.0 mph SE27.4 kmh SE 19.0 mph30.6 kmh -338605.1 mb 0.00 in0.0 mm 0.00 in/hr0.0 mm/hr 0.00 in0.0 mm
10:32 PM 81.5°F27.5°C 51.3°F10.7°C 35% 15.0 mph S24.1 kmh S 12.1 mph19.5 kmh -338605.1 mb 0.00 in0.0 mm 0.00 in/hr0.0 mm/hr 0.00 in0.0 mm
10:37 PM 81.3°F27.4°C 50.2°F10.1°C 34% 15.0 mph S24.1 kmh S 17.9 mph28.8 kmh -338605.1 mb 0.00 in0.0 mm 0.00 in/hr0.0 mm/hr 0.00 in0.0 mm
10:42 PM 81.1°F27.3°C 50.2°F10.1°C 34% 14.1 mph S22.7 kmh S 19.0 mph30.6 kmh -338605.1 mb 0.00 in0.0 mm 0.00 in/hr0.0 mm/hr 0.00 in0.0 mm
10:47 PM 81.0°F27.2°C 50.0°F10.0°C 34% 13.0 mph S20.9 kmh S 13.0 mph20.9 kmh -338605.1 mb 0.00 in0.0 mm 0.00 in/hr0.0 mm/hr 0.00 in0.0 mm
10:52 PM 81.3°F27.4°C 50.2°F10.1°C 34% 13.0 mph S20.9 kmh S 10.1 mph16.3 kmh -338605.1 mb 0.00 in0.0 mm 0.00 in/hr0.0 mm/hr 0.00 in0.0 mm
10:57 PM 81.1°F27.3°C 50.2°F10.1°C 34% 14.1 mph SW22.7 kmh SW 10.1 mph16.3 kmh -338605.1 mb 0.00 in0.0 mm 0.00 in/hr0.0 mm/hr 0.00 in0.0 mm
11:02 PM 80.4°F26.9°C 50.2°F10.1°C 35% 11.0 mph SW17.7 kmh SW 6.9 mph11.1 kmh -338605.1 mb 0.00 in0.0 mm 0.00 in/hr0.0 mm/hr 0.00 in0.0 mm
11:07 PM 79.7°F26.5°C 49.6°F9.8°C 35% 8.1 mph S13.0 kmh S 8.1 mph13.0 kmh -338605.1 mb 0.00 in0.0 mm 0.00 in/hr0.0 mm/hr 0.00 in0.0 mm
11:12 PM 79.5°F26.4°C 49.5°F9.7°C 35% 8.1 mph SW13.0 kmh SW 6.9 mph11.1 kmh -338605.1 mb 0.00 in0.0 mm 0.00 in/hr0.0 mm/hr 0.00 in0.0 mm
11:17 PM 79.9°F26.6°C 49.8°F9.9°C 35% 6.9 mph SW11.1 kmh SW 12.1 mph19.5 kmh -338605.1 mb 0.00 in0.0 mm 0.00 in/hr0.0 mm/hr 0.00 in0.0 mm
11:22 PM 80.2°F26.8°C 49.3°F9.6°C 34% 8.1 mph SW13.0 kmh SW 10.1 mph16.3 kmh -338605.1 mb 0.00 in0.0 mm 0.00 in/hr0.0 mm/hr 0.00 in0.0 mm
11:27 PM 80.2°F26.8°C 49.3°F9.6°C 34% 8.9 mph SSW14.3 kmh SSW 8.1 mph13.0 kmh -338605.1 mb 0.00 in0.0 mm 0.00 in/hr0.0 mm/hr 0.00 in0.0 mm
11:32 PM 80.4°F26.9°C 49.5°F9.7°C 34% 10.1 mph S16.3 kmh S 10.1 mph16.3 kmh -338605.1 mb 0.00 in0.0 mm 0.00 in/hr0.0 mm/hr 0.00 in0.0 mm
11:37 PM 80.4°F26.9°C 49.5°F9.7°C 34% 10.1 mph SW16.3 kmh SW 6.9 mph11.1 kmh -338605.1 mb 0.00 in0.0 mm 0.00 in/hr0.0 mm/hr 0.00 in0.0 mm
11:42 PM 80.2°F26.8°C 49.3°F9.6°C 34% 10.1 mph SW16.3 kmh SW 11.0 mph17.7 kmh -338605.1 mb 0.00 in0.0 mm 0.00 in/hr0.0 mm/hr 0.00 in0.0 mm
11:47 PM 80.4°F26.9°C 48.7°F9.3°C 33% 10.1 mph S16.3 kmh S 8.1 mph13.0 kmh -338605.1 mb 0.00 in0.0 mm 0.00 in/hr0.0 mm/hr 0.00 in0.0 mm
11:52 PM 80.6°F27.0°C 49.6°F9.8°C 34% 10.1 mph SSW16.3 kmh SSW 8.9 mph14.3 kmh -338605.1 mb 0.00 in0.0 mm 0.00 in/hr0.0 mm/hr 0.00 in0.0 mm
11:57 PM 80.2°F26.8°C 49.3°F9.6°C 34% 8.9 mph SSW14.3 kmh SSW 10.1 mph16.3 kmh -338605.1 mb 0.00 in0.0 mm 0.00 in/hr0.0 mm/hr 0.00 in0.0 mm